createdAt,value
2022-09-07T00:01:41.790Z,10.80
2022-09-07T00:04:15.342Z,10.78
2022-09-07T00:06:48.575Z,10.73
2022-09-07T00:09:21.893Z,10.67
2022-09-07T00:11:55.710Z,10.62
2022-09-07T00:14:29.892Z,10.57
2022-09-07T00:17:03.253Z,10.53
2022-09-07T00:22:27.953Z,10.44
2022-09-07T00:25:02.005Z,10.41
2022-09-07T00:27:35.818Z,10.40
2022-09-07T00:30:10.665Z,10.38
2022-09-07T00:32:43.853Z,10.37
2022-09-07T00:35:17.216Z,10.37
2022-09-07T00:37:51.627Z,10.36
2022-09-07T00:40:45.555Z,10.33
2022-09-07T00:43:37.481Z,10.32
2022-09-07T00:46:16.800Z,10.29
2022-09-07T00:49:12.737Z,10.28
2022-09-07T00:51:59.385Z,10.24
2022-09-07T00:54:42.279Z,10.20
2022-09-07T00:57:17.041Z,10.16
2022-09-07T00:59:52.776Z,10.14
2022-09-07T01:02:26.979Z,10.12
2022-09-07T01:05:09.365Z,10.12
2022-09-07T01:07:42.650Z,10.07
2022-09-07T01:10:15.912Z,10.05
2022-09-07T01:12:48.933Z,10.04
2022-09-07T01:15:23.243Z,10.04
2022-09-07T01:18:06.041Z,10.02
2022-09-07T01:21:10.177Z,9.99
2022-09-07T01:24:08.677Z,9.95
2022-09-07T01:27:19.439Z,9.93
2022-09-07T01:30:11.279Z,9.90
2022-09-07T01:33:19.887Z,9.85
2022-09-07T01:36:24.834Z,9.83
2022-09-07T01:39:02.131Z,9.83
2022-09-07T01:42:11.574Z,9.84
2022-09-07T01:44:57.610Z,9.83
2022-09-07T01:47:47.465Z,9.83
2022-09-07T01:50:29.860Z,9.85
2022-09-07T01:53:07.517Z,9.85
2022-09-07T01:55:53.742Z,9.86
2022-09-07T01:58:30.663Z,9.86
2022-09-07T02:01:09.549Z,9.84
2022-09-07T02:03:56.231Z,9.82
2022-09-07T02:06:37.000Z,9.83
2022-09-07T02:09:38.996Z,9.82
2022-09-07T02:12:19.767Z,9.81
2022-09-07T02:15:01.010Z,9.82
2022-09-07T02:17:42.838Z,9.80
2022-09-07T02:20:23.416Z,9.82
2022-09-07T02:23:00.721Z,9.84
2022-09-07T02:25:41.372Z,9.89
2022-09-07T02:28:21.166Z,9.87
2022-09-07T02:30:54.752Z,9.83
2022-09-07T02:33:28.277Z,9.80
2022-09-07T02:36:02.361Z,9.76
2022-09-07T02:38:35.931Z,9.73
2022-09-07T02:41:29.904Z,9.71
2022-09-07T02:44:03.543Z,9.70
2022-09-07T02:46:59.869Z,9.66
2022-09-07T02:50:15.135Z,9.64
2022-09-07T02:53:16.574Z,9.61
2022-09-07T02:56:15.061Z,9.58
2022-09-07T02:59:14.032Z,9.57
2022-09-07T03:02:13.025Z,9.57
2022-09-07T03:05:13.802Z,9.57
2022-09-07T03:07:54.558Z,9.59
2022-09-07T03:10:28.542Z,9.61
2022-09-07T03:13:01.574Z,9.62
2022-09-07T03:15:35.652Z,9.64
2022-09-07T03:18:29.849Z,9.65
2022-09-07T03:21:03.674Z,9.64
2022-09-07T03:23:37.969Z,9.61
2022-09-07T03:26:15.577Z,9.62
2022-09-07T03:28:49.473Z,9.63
2022-09-07T03:31:22.793Z,9.64
2022-09-07T03:33:56.699Z,9.66
2022-09-07T03:36:30.942Z,9.69
2022-09-07T03:39:04.429Z,9.70
2022-09-07T03:41:39.000Z,9.70
2022-09-07T03:44:12.169Z,9.71
2022-09-07T03:46:45.214Z,9.72
2022-09-07T03:49:18.497Z,9.73
2022-09-07T03:51:52.574Z,9.76
2022-09-07T03:54:25.823Z,9.81
2022-09-07T03:56:59.321Z,9.85
2022-09-07T03:59:32.335Z,9.87
2022-09-07T04:02:26.846Z,9.90
2022-09-07T04:05:00.507Z,9.90
2022-09-07T04:07:33.754Z,9.93
2022-09-07T04:10:09.061Z,9.97
2022-09-07T04:12:42.070Z,10.03
2022-09-07T04:15:15.463Z,10.08
2022-09-07T04:17:48.629Z,10.16
2022-09-07T04:20:22.502Z,10.21
2022-09-07T04:22:56.875Z,10.29
2022-09-07T04:25:29.922Z,10.36
2022-09-07T04:28:04.195Z,10.44
2022-09-07T04:30:38.504Z,10.52
2022-09-07T04:33:12.105Z,10.61
2022-09-07T04:35:45.150Z,10.73
2022-09-07T04:38:19.584Z,10.85
2022-09-07T04:40:54.110Z,10.96
2022-09-07T04:43:27.483Z,11.06
2022-09-07T04:46:06.720Z,11.19
2022-09-07T04:48:39.735Z,11.31
2022-09-07T04:51:12.955Z,11.46
2022-09-07T04:53:47.341Z,11.62
2022-09-07T04:56:21.018Z,11.83
2022-09-07T04:58:54.240Z,12.01
2022-09-07T05:01:27.452Z,12.12
2022-09-07T05:04:02.663Z,12.25
2022-09-07T05:06:36.042Z,12.38
2022-09-07T05:09:09.049Z,12.50
2022-09-07T05:11:43.252Z,12.58
2022-09-07T05:14:16.255Z,12.70
2022-09-07T05:16:50.616Z,12.87
2022-09-07T05:19:35.267Z,13.05
2022-09-07T05:22:09.511Z,13.22
2022-09-07T05:24:43.815Z,13.37
2022-09-07T05:27:17.150Z,13.51
2022-09-07T05:30:06.272Z,13.74
2022-09-07T05:32:24.083Z,14.11
2022-09-07T05:34:57.421Z,14.52
2022-09-07T05:37:30.918Z,14.92
2022-09-07T05:40:04.088Z,15.32
2022-09-07T05:42:40.625Z,15.70
2022-09-07T05:45:14.697Z,15.93
2022-09-07T05:47:51.131Z,15.96
2022-09-07T05:50:24.734Z,16.00
2022-09-07T05:52:59.596Z,16.05
2022-09-07T05:55:36.323Z,16.20
2022-09-07T05:58:09.264Z,16.39
2022-09-07T06:00:42.136Z,16.53
2022-09-07T06:03:15.143Z,16.64
2022-09-07T06:05:48.206Z,16.90
2022-09-07T06:08:21.532Z,17.10
2022-09-07T06:10:54.414Z,17.27
2022-09-07T06:13:27.403Z,17.42
2022-09-07T06:16:09.596Z,17.64
2022-09-07T06:18:46.028Z,17.93
2022-09-07T06:21:23.710Z,18.18
2022-09-07T06:23:58.024Z,18.13
2022-09-07T06:26:32.442Z,18.00
2022-09-07T06:29:05.756Z,18.06
2022-09-07T06:34:13.432Z,18.18
2022-09-07T06:36:46.547Z,18.24
2022-09-07T06:39:19.923Z,18.44
2022-09-07T06:44:29.996Z,18.87
2022-09-07T06:47:04.780Z,19.18
2022-09-07T06:49:39.322Z,19.50
2022-09-07T06:52:12.335Z,19.68
2022-09-07T06:55:02.379Z,19.70
2022-09-07T06:57:21.723Z,19.83
2022-09-07T07:00:14.956Z,19.92
2022-09-07T07:02:48.202Z,19.89
2022-09-07T07:05:21.344Z,19.71
2022-09-07T07:07:56.547Z,19.66
2022-09-07T07:10:29.979Z,19.77
2022-09-07T07:13:04.811Z,20.19
2022-09-07T07:15:39.406Z,20.46
2022-09-07T07:18:20.948Z,20.44
2022-09-07T07:20:48.194Z,20.28
2022-09-07T07:23:21.679Z,20.19
2022-09-07T07:25:56.197Z,20.43
2022-09-07T07:31:09.459Z,21.04
2022-09-07T07:33:41.042Z,21.13
2022-09-07T07:36:17.404Z,21.14
2022-09-07T07:44:07.660Z,21.72
2022-09-07T07:46:40.766Z,21.89
2022-09-07T07:49:14.621Z,22.08
2022-09-07T07:54:23.136Z,22.08
2022-09-07T07:56:56.028Z,22.27
2022-09-07T07:59:29.385Z,22.21
2022-09-07T08:02:05.870Z,22.20
2022-09-07T08:04:39.583Z,22.22
2022-09-07T08:07:13.264Z,22.45
2022-09-07T08:09:49.050Z,22.63
2022-09-07T08:12:25.559Z,22.77
2022-09-07T08:14:59.089Z,22.78
2022-09-07T08:17:32.017Z,22.67
2022-09-07T08:20:05.162Z,22.50
2022-09-07T08:22:38.539Z,22.14
2022-09-07T08:25:12.070Z,22.07
2022-09-07T08:27:45.382Z,21.97
2022-09-07T08:30:19.211Z,21.53
2022-09-07T08:32:53.843Z,21.34
2022-09-07T08:35:42.919Z,21.48
2022-09-07T08:38:20.516Z,21.76
2022-09-07T08:40:51.812Z,22.23
2022-09-07T08:43:54.067Z,22.22
2022-09-07T08:46:56.687Z,21.92
2022-09-07T08:49:43.410Z,21.57
2022-09-07T08:52:40.849Z,21.79
2022-09-07T08:55:24.444Z,21.90
2022-09-07T08:58:47.742Z,21.82
2022-09-07T09:04:15.209Z,22.62
2022-09-07T09:06:40.465Z,23.28
2022-09-07T09:09:20.882Z,23.28
2022-09-07T09:12:18.547Z,23.18
2022-09-07T09:15:11.251Z,22.92
2022-09-07T09:18:13.886Z,22.46
2022-09-07T09:20:57.382Z,22.42
2022-09-07T09:23:42.931Z,22.42
2022-09-07T09:26:18.219Z,22.91
2022-09-07T09:28:52.281Z,23.20
2022-09-07T09:31:32.138Z,23.32
2022-09-07T09:34:17.953Z,23.59
2022-09-07T09:36:53.985Z,23.88
2022-09-07T09:39:35.991Z,24.20
2022-09-07T09:42:27.733Z,24.37
2022-09-07T09:45:15.985Z,24.10
2022-09-07T09:47:53.295Z,23.65
2022-09-07T09:53:05.736Z,23.65
2022-09-07T09:55:40.450Z,23.86
2022-09-07T10:01:35.464Z,24.56
2022-09-07T10:04:30.079Z,24.59
2022-09-07T10:07:18.221Z,24.30
2022-09-07T10:09:53.885Z,23.91
2022-09-07T10:12:38.250Z,23.75
2022-09-07T10:15:39.058Z,23.80
2022-09-07T10:18:13.085Z,24.00
2022-09-07T10:20:46.495Z,24.12
2022-09-07T10:23:26.080Z,24.09
2022-09-07T10:25:59.154Z,24.10
2022-09-07T10:31:23.637Z,24.64
2022-09-07T10:34:35.043Z,24.96
2022-09-07T10:37:12.501Z,25.30
2022-09-07T10:40:05.291Z,25.23
2022-09-07T10:43:20.699Z,25.16
2022-09-07T10:45:27.891Z,25.18
2022-09-07T10:48:22.070Z,25.05
2022-09-07T10:51:13.811Z,24.87
2022-09-07T10:57:03.650Z,23.69
2022-09-07T11:00:15.135Z,23.25
2022-09-07T11:03:29.295Z,22.89
2022-09-07T11:06:11.407Z,22.76
2022-09-07T11:09:16.513Z,23.08
2022-09-07T11:12:18.429Z,23.62
2022-09-07T11:15:21.393Z,24.27
2022-09-07T11:18:10.112Z,24.75
2022-09-07T11:20:54.628Z,25.04
2022-09-07T11:23:52.592Z,25.16
2022-09-07T11:26:33.343Z,25.18
2022-09-07T11:29:32.319Z,25.21
2022-09-07T11:32:14.643Z,24.85
2022-09-07T11:35:10.579Z,24.53
2022-09-07T11:37:59.784Z,24.39
2022-09-07T11:40:39.812Z,24.30
2022-09-07T11:43:25.764Z,24.31
2022-09-07T11:46:26.946Z,24.24
2022-09-07T11:49:00.200Z,24.21
2022-09-07T11:51:55.202Z,24.20
2022-09-07T11:54:48.612Z,24.32
2022-09-07T11:57:55.444Z,24.30
2022-09-07T12:00:33.016Z,24.22
2022-09-07T12:03:31.535Z,23.97
2022-09-07T12:06:50.194Z,23.70
2022-09-07T12:10:21.577Z,23.56
2022-09-07T12:13:45.768Z,23.75
2022-09-07T12:16:48.359Z,24.00
2022-09-07T12:19:25.122Z,23.98
2022-09-07T12:22:22.160Z,23.84
2022-09-07T12:24:56.090Z,23.77
2022-09-07T12:27:35.624Z,23.77
2022-09-07T12:30:19.274Z,23.76
2022-09-07T12:33:01.167Z,23.44
2022-09-07T12:35:41.667Z,22.88
2022-09-07T12:38:36.944Z,22.41
2022-09-07T12:41:25.130Z,22.02
2022-09-07T12:44:10.695Z,21.51
2022-09-07T12:46:47.446Z,20.93
2022-09-07T12:49:43.771Z,20.55
2022-09-07T12:52:39.837Z,20.45
2022-09-07T12:55:32.965Z,20.39
2022-09-07T12:58:30.326Z,20.31
2022-09-07T13:01:55.955Z,20.26
2022-09-07T13:04:52.843Z,20.21
2022-09-07T13:08:08.275Z,19.98
2022-09-07T13:10:58.083Z,19.82
2022-09-07T13:16:14.429Z,19.67
2022-09-07T13:18:47.816Z,19.53
2022-09-07T13:21:34.211Z,19.50
2022-09-07T13:27:06.404Z,19.42
2022-09-07T13:29:44.001Z,19.35
2022-09-07T13:35:13.702Z,19.18
2022-09-07T13:38:09.036Z,19.06
2022-09-07T13:40:42.769Z,19.09
2022-09-07T13:43:22.792Z,19.03
2022-09-07T13:46:18.057Z,19.02
2022-09-07T13:48:52.504Z,19.02
2022-09-07T13:51:42.110Z,19.04
2022-09-07T13:54:50.865Z,19.09
2022-09-07T13:57:34.756Z,19.07
2022-09-07T14:00:10.376Z,19.13
2022-09-07T14:02:43.481Z,19.26
2022-09-07T14:05:20.475Z,19.42
2022-09-07T14:07:54.194Z,19.57
2022-09-07T14:10:29.877Z,19.78
2022-09-07T14:13:14.296Z,19.98
2022-09-07T14:15:49.663Z,20.16
2022-09-07T14:18:31.851Z,20.31
2022-09-07T14:21:06.901Z,20.39
2022-09-07T14:23:40.158Z,20.40
2022-09-07T14:26:22.238Z,20.39
2022-09-07T14:28:58.412Z,20.39
2022-09-07T14:31:32.626Z,20.42
2022-09-07T14:34:06.722Z,20.36
2022-09-07T14:36:45.777Z,20.24
2022-09-07T14:39:18.184Z,20.15
2022-09-07T14:41:51.889Z,20.04
2022-09-07T14:44:39.025Z,19.99
2022-09-07T14:47:33.039Z,19.93
2022-09-07T14:50:07.242Z,19.83
2022-09-07T14:53:33.892Z,19.68
2022-09-07T14:55:44.861Z,19.60
2022-09-07T14:58:23.821Z,19.51
2022-09-07T15:03:58.742Z,19.32
2022-09-07T15:07:02.997Z,19.25
2022-09-07T15:09:37.143Z,19.17
2022-09-07T15:12:36.451Z,19.11
2022-09-07T15:15:03.556Z,19.04
2022-09-07T15:17:44.299Z,18.96
2022-09-07T15:20:32.602Z,18.88
2022-09-07T15:23:21.164Z,18.82
2022-09-07T15:25:54.761Z,18.73
2022-09-07T15:33:42.203Z,18.59
2022-09-07T15:36:16.985Z,18.52
2022-09-07T15:39:05.043Z,18.46
2022-09-07T15:41:24.725Z,18.40
2022-09-07T15:43:58.394Z,18.37
2022-09-07T15:46:32.429Z,18.31
2022-09-07T15:49:05.867Z,18.24
2022-09-07T15:54:17.006Z,18.15
2022-09-07T15:59:25.696Z,18.07
2022-09-07T16:01:59.041Z,18.01
2022-09-07T16:04:32.106Z,17.97
2022-09-07T16:07:05.331Z,17.92
2022-09-07T16:09:39.150Z,17.89
2022-09-07T16:14:47.903Z,17.82
2022-09-07T16:17:26.929Z,17.80
2022-09-07T16:19:57.621Z,17.79
2022-09-07T16:25:07.327Z,17.74
2022-09-07T16:27:41.769Z,17.69
2022-09-07T16:30:15.995Z,17.64
2022-09-07T16:32:52.313Z,17.58
2022-09-07T16:35:25.485Z,17.52
2022-09-07T16:40:33.195Z,17.40
2022-09-07T16:43:06.971Z,17.33
2022-09-07T16:48:13.729Z,17.23
2022-09-07T16:51:00.624Z,17.17
2022-09-07T16:53:30.438Z,17.09
2022-09-07T16:56:07.315Z,17.03
2022-09-07T16:59:03.376Z,16.97
2022-09-07T17:01:37.790Z,16.90
2022-09-07T17:04:11.617Z,16.85
2022-09-07T17:06:45.031Z,16.79
2022-09-07T17:09:18.264Z,16.76
2022-09-07T17:11:52.517Z,16.72
2022-09-07T17:14:25.376Z,16.69
2022-09-07T17:16:59.133Z,16.67
2022-09-07T17:19:33.233Z,16.63
2022-09-07T17:22:09.168Z,16.59
2022-09-07T17:24:42.337Z,16.57
2022-09-07T17:27:15.150Z,16.55
2022-09-07T17:29:48.119Z,16.52
2022-09-07T17:32:24.283Z,16.46
2022-09-07T17:35:00.337Z,16.45
2022-09-07T17:37:34.737Z,16.44
2022-09-07T17:40:09.868Z,16.44
2022-09-07T17:45:16.748Z,16.38
2022-09-07T17:47:50.759Z,16.34
2022-09-07T17:50:23.964Z,16.29
2022-09-07T17:52:56.893Z,16.25
2022-09-07T17:55:31.817Z,16.20
2022-09-07T17:58:05.695Z,16.16
2022-09-07T18:00:38.828Z,16.14
2022-09-07T18:03:13.099Z,16.10
2022-09-07T18:05:46.074Z,16.10
2022-09-07T18:08:18.923Z,16.05
2022-09-07T18:13:35.637Z,16.00
2022-09-07T18:16:01.110Z,15.96
2022-09-07T18:18:34.189Z,15.90
2022-09-07T18:21:16.235Z,15.85
2022-09-07T18:23:51.438Z,15.79
2022-09-07T18:26:24.908Z,15.76
2022-09-07T18:29:10.502Z,15.71
2022-09-07T18:31:33.249Z,15.67
2022-09-07T18:34:09.001Z,15.61
2022-09-07T18:36:43.985Z,15.56
2022-09-07T18:39:17.312Z,15.49
2022-09-07T18:41:50.371Z,15.44
2022-09-07T18:47:00.852Z,15.33
2022-09-07T18:49:35.911Z,15.30
2022-09-07T18:54:43.799Z,15.26
2022-09-07T18:57:16.872Z,15.28
2022-09-07T18:59:53.552Z,15.26
2022-09-07T19:02:27.362Z,15.22
2022-09-07T19:07:36.906Z,15.09
2022-09-07T19:10:12.712Z,15.04
2022-09-07T19:12:46.886Z,14.98
2022-09-07T19:15:20.790Z,14.92
2022-09-07T19:17:54.595Z,14.83
2022-09-07T19:20:29.598Z,14.75
2022-09-07T19:23:03.555Z,14.67
2022-09-07T19:25:40.051Z,14.63
2022-09-07T19:28:14.600Z,14.59
2022-09-07T19:30:48.619Z,14.57
2022-09-07T19:33:22.693Z,14.58
2022-09-07T19:35:55.554Z,14.62
2022-09-07T19:38:29.763Z,14.62
2022-09-07T19:41:03.383Z,14.59
2022-09-07T19:43:37.083Z,14.57
2022-09-07T19:46:10.956Z,14.52
2022-09-07T19:48:44.310Z,14.48
2022-09-07T19:51:19.653Z,14.46
2022-09-07T19:53:52.971Z,14.45
2022-09-07T19:56:27.324Z,14.40
2022-09-07T19:59:00.385Z,14.35
2022-09-07T20:01:35.316Z,14.33
2022-09-07T20:04:10.299Z,14.30
2022-09-07T20:06:43.181Z,14.28
2022-09-07T20:09:17.253Z,14.22
2022-09-07T20:11:51.261Z,14.18
2022-09-07T20:14:26.731Z,14.15
2022-09-07T20:17:01.537Z,14.12
2022-09-07T20:19:35.064Z,14.08
2022-09-07T20:22:08.691Z,14.05
2022-09-07T20:24:43.576Z,14.03
2022-09-07T20:27:15.764Z,13.99
2022-09-07T20:29:51.252Z,13.98
2022-09-07T20:32:24.782Z,13.96
2022-09-07T20:34:58.567Z,13.95
2022-09-07T20:37:31.679Z,13.94
2022-09-07T20:40:06.639Z,13.90
2022-09-07T20:42:41.073Z,13.89
2022-09-07T20:45:15.288Z,13.88
2022-09-07T20:47:49.349Z,13.88
2022-09-07T20:50:22.623Z,13.86
2022-09-07T20:52:56.315Z,13.83
2022-09-07T20:55:30.734Z,13.81
2022-09-07T20:58:04.540Z,13.78
2022-09-07T21:00:37.959Z,13.76
2022-09-07T21:03:12.422Z,13.73
2022-09-07T21:05:45.238Z,13.69
2022-09-07T21:08:18.300Z,13.65
2022-09-07T21:10:51.795Z,13.65
2022-09-07T21:13:24.701Z,13.64
2022-09-07T21:15:57.701Z,13.64
2022-09-07T21:18:30.477Z,13.61
2022-09-07T21:21:19.175Z,13.60
2022-09-07T21:23:39.344Z,13.57
2022-09-07T21:26:13.011Z,13.56
2022-09-07T21:28:46.944Z,13.55
2022-09-07T21:31:19.914Z,13.56
2022-09-07T21:33:59.902Z,13.56
2022-09-07T21:36:35.019Z,13.52
2022-09-07T21:39:12.591Z,13.49
2022-09-07T21:41:45.225Z,13.47
2022-09-07T21:44:18.714Z,13.44
2022-09-07T21:46:53.229Z,13.42
2022-09-07T21:49:27.774Z,13.39
2022-09-07T21:52:00.713Z,13.34
2022-09-07T21:54:33.721Z,13.29
2022-09-07T21:57:08.140Z,13.26
2022-09-07T21:59:41.728Z,13.22
2022-09-07T22:02:15.345Z,13.16
2022-09-07T22:04:49.016Z,13.15
2022-09-07T22:07:22.155Z,13.15
2022-09-07T22:09:56.782Z,13.13
2022-09-07T22:12:30.148Z,13.09
2022-09-07T22:15:03.399Z,13.05
2022-09-07T22:17:37.029Z,13.00
2022-09-07T22:20:12.212Z,12.97
2022-09-07T22:22:47.625Z,12.95
2022-09-07T22:25:20.620Z,12.91
2022-09-07T22:27:54.403Z,12.87
2022-09-07T22:30:28.667Z,12.85
2022-09-07T22:33:01.498Z,12.85
2022-09-07T22:35:36.382Z,12.84
2022-09-07T22:38:09.208Z,12.81
2022-09-07T22:40:42.070Z,12.80
2022-09-07T22:43:14.887Z,12.80
2022-09-07T22:45:47.846Z,12.79
2022-09-07T22:48:20.972Z,12.78
2022-09-07T22:50:59.787Z,12.79
2022-09-07T22:53:37.350Z,12.79
2022-09-07T22:56:18.816Z,12.78
2022-09-07T22:58:54.235Z,12.77
2022-09-07T23:01:28.305Z,12.76
2022-09-07T23:04:02.782Z,12.76
2022-09-07T23:06:39.369Z,12.76
2022-09-07T23:09:15.694Z,12.76
2022-09-07T23:11:49.961Z,12.77
2022-09-07T23:14:23.996Z,12.79
2022-09-07T23:16:58.238Z,12.78
2022-09-07T23:19:31.224Z,12.74
2022-09-07T23:22:04.824Z,12.70
2022-09-07T23:24:39.956Z,12.66
2022-09-07T23:27:12.791Z,12.61
2022-09-07T23:29:47.181Z,12.59
2022-09-07T23:32:20.181Z,12.59
2022-09-07T23:34:54.058Z,12.61
2022-09-07T23:37:27.017Z,12.66
2022-09-07T23:39:59.930Z,12.71
2022-09-07T23:42:33.130Z,12.74
2022-09-07T23:45:08.469Z,12.76
2022-09-07T23:47:42.340Z,12.76
2022-09-07T23:50:15.122Z,12.76
2022-09-07T23:52:49.213Z,12.77
2022-09-07T23:55:22.525Z,12.76
2022-09-07T23:57:57.365Z,12.71
